createdAt,value
2023-05-08T00:01:31.386Z,15.15
2023-05-08T00:03:58.154Z,15.09
2023-05-08T00:06:24.846Z,15.06
2023-05-08T00:08:51.330Z,15.04
2023-05-08T00:11:17.718Z,14.97
2023-05-08T00:13:44.164Z,14.91
2023-05-08T00:16:11.736Z,14.87
2023-05-08T00:18:38.801Z,14.85
2023-05-08T00:21:06.256Z,14.85
2023-05-08T00:23:33.725Z,14.86
2023-05-08T00:26:00.269Z,14.82
2023-05-08T00:28:26.881Z,14.76
2023-05-08T00:30:53.775Z,14.77
2023-05-08T00:33:20.400Z,14.80
2023-05-08T00:35:46.815Z,14.84
2023-05-08T00:38:13.317Z,14.85
2023-05-08T00:40:40.023Z,14.84
2023-05-08T00:43:09.761Z,14.79
2023-05-08T00:45:39.382Z,14.71
2023-05-08T00:48:06.890Z,14.67
2023-05-08T00:50:33.556Z,14.65
2023-05-08T00:53:03.050Z,14.62
2023-05-08T00:55:31.057Z,14.63
2023-05-08T00:57:57.704Z,14.64
2023-05-08T01:00:24.861Z,14.63
2023-05-08T01:02:51.656Z,14.60
2023-05-08T01:05:20.980Z,14.59
2023-05-08T01:07:47.972Z,14.56
2023-05-08T01:10:14.894Z,14.57
2023-05-08T01:13:02.090Z,14.64
2023-05-08T01:15:40.658Z,14.68
2023-05-08T01:18:19.627Z,14.69
2023-05-08T01:20:59.609Z,14.71
2023-05-08T01:23:52.140Z,14.75
2023-05-08T01:26:54.171Z,14.76
2023-05-08T01:29:23.438Z,14.74
2023-05-08T01:32:14.385Z,14.77
2023-05-08T01:35:01.041Z,14.78
2023-05-08T01:37:35.720Z,14.75
2023-05-08T01:40:12.995Z,14.71
2023-05-08T01:42:51.995Z,14.67
2023-05-08T01:45:38.784Z,14.65
2023-05-08T01:48:13.837Z,14.60
2023-05-08T01:50:47.504Z,14.58
2023-05-08T01:53:23.058Z,14.53
2023-05-08T01:55:53.572Z,14.49
2023-05-08T01:58:21.887Z,14.50
2023-05-08T02:00:49.185Z,14.50
2023-05-08T02:03:17.325Z,14.47
2023-05-08T02:05:45.283Z,14.42
2023-05-08T02:08:14.127Z,14.39
2023-05-08T02:10:42.266Z,14.32
2023-05-08T02:13:10.806Z,14.28
2023-05-08T02:15:39.563Z,14.27
2023-05-08T02:18:08.647Z,14.24
2023-05-08T02:20:36.486Z,14.25
2023-05-08T02:23:03.540Z,14.28
2023-05-08T02:25:31.222Z,14.29
2023-05-08T02:27:58.836Z,14.28
2023-05-08T02:30:26.381Z,14.21
2023-05-08T02:32:58.872Z,14.13
2023-05-08T02:35:30.932Z,14.10
2023-05-08T02:37:58.823Z,14.06
2023-05-08T02:40:29.061Z,14.04
2023-05-08T02:42:55.978Z,14.05
2023-05-08T02:45:28.737Z,14.07
2023-05-08T02:48:15.823Z,14.04
2023-05-08T02:50:56.071Z,14.06
2023-05-08T02:53:32.837Z,14.05
2023-05-08T02:56:13.619Z,14.04
2023-05-08T02:58:45.871Z,14.01
2023-05-08T03:01:41.925Z,13.98
2023-05-08T03:04:11.050Z,13.95
2023-05-08T03:06:42.765Z,13.97
2023-05-08T03:09:18.672Z,13.93
2023-05-08T03:11:49.440Z,13.88
2023-05-08T03:14:25.640Z,13.88
2023-05-08T03:16:55.252Z,13.86
2023-05-08T03:19:30.058Z,13.85
2023-05-08T03:21:59.139Z,13.91
2023-05-08T03:24:28.011Z,13.93
2023-05-08T03:26:56.296Z,13.94
2023-05-08T03:29:25.342Z,13.89
2023-05-08T03:31:53.150Z,13.94
2023-05-08T03:34:22.864Z,13.99
2023-05-08T03:36:50.622Z,14.03
2023-05-08T03:39:17.562Z,14.05
2023-05-08T03:41:45.554Z,14.07
2023-05-08T03:44:12.128Z,14.07
2023-05-08T03:46:39.448Z,14.10
2023-05-08T03:49:11.501Z,14.10
2023-05-08T03:51:41.098Z,14.08
2023-05-08T03:54:07.624Z,14.09
2023-05-08T03:56:34.363Z,14.07
2023-05-08T03:59:13.785Z,14.03
2023-05-08T04:01:48.917Z,14.03
2023-05-08T04:04:39.968Z,14.03
2023-05-08T04:07:30.788Z,14.01
2023-05-08T04:10:02.592Z,14.00
2023-05-08T04:12:40.094Z,13.99
2023-05-08T04:15:11.297Z,13.94
2023-05-08T04:17:44.562Z,13.94
2023-05-08T04:20:16.657Z,13.94
2023-05-08T04:22:45.226Z,13.90
2023-05-08T04:25:15.256Z,13.88
2023-05-08T04:27:43.560Z,13.85
2023-05-08T04:30:10.595Z,13.81
2023-05-08T04:32:40.779Z,13.81
2023-05-08T04:35:08.757Z,13.80
2023-05-08T04:37:35.231Z,13.83
2023-05-08T04:40:05.287Z,13.85
2023-05-08T04:42:33.461Z,13.85
2023-05-08T04:45:00.005Z,13.86
2023-05-08T04:47:26.557Z,13.89
2023-05-08T04:49:53.075Z,13.95
2023-05-08T04:52:19.489Z,13.99
2023-05-08T04:54:46.026Z,14.01
2023-05-08T04:57:15.515Z,14.05
2023-05-08T04:59:44.637Z,14.06
2023-05-08T05:02:12.211Z,14.11
2023-05-08T05:04:38.629Z,14.14
2023-05-08T05:07:05.211Z,14.19
2023-05-08T05:09:34.764Z,14.26
2023-05-08T05:12:01.181Z,14.28
2023-05-08T05:14:28.976Z,14.29
2023-05-08T05:16:55.334Z,14.32
2023-05-08T05:19:21.900Z,14.31
2023-05-08T05:21:48.350Z,14.34
2023-05-08T05:24:14.972Z,14.36
2023-05-08T05:26:41.699Z,14.37
2023-05-08T05:29:08.478Z,14.38
2023-05-08T05:31:34.977Z,14.42
2023-05-08T05:34:01.546Z,14.50
2023-05-08T05:36:30.883Z,14.55
2023-05-08T05:38:57.601Z,14.61
2023-05-08T05:41:24.478Z,14.64
2023-05-08T05:43:51.010Z,14.67
2023-05-08T05:46:18.031Z,14.70
2023-05-08T05:48:44.539Z,14.72
2023-05-08T05:51:11.038Z,14.77
2023-05-08T05:53:37.550Z,14.78
2023-05-08T05:56:04.274Z,14.82
2023-05-08T05:58:30.732Z,14.86
2023-05-08T06:01:00.963Z,14.89
2023-05-08T06:03:27.979Z,14.92
2023-05-08T06:05:55.864Z,14.94
2023-05-08T06:08:23.054Z,14.94
2023-05-08T06:10:50.624Z,14.97
2023-05-08T06:13:17.229Z,15.03
2023-05-08T06:15:43.901Z,15.09
2023-05-08T06:18:10.471Z,15.14
2023-05-08T06:20:38.620Z,15.17
2023-05-08T06:23:06.669Z,15.19
2023-05-08T06:25:33.182Z,15.24
2023-05-08T06:27:59.844Z,15.25
2023-05-08T06:30:26.457Z,15.26
2023-05-08T06:32:54.277Z,15.26
2023-05-08T06:35:20.820Z,15.27
2023-05-08T06:37:47.264Z,15.31
2023-05-08T06:40:14.305Z,15.34
2023-05-08T06:42:41.364Z,15.38
2023-05-08T06:45:09.908Z,15.41
2023-05-08T06:47:36.544Z,15.43
2023-05-08T06:50:03.802Z,15.47
2023-05-08T06:52:32.504Z,15.52
2023-05-08T06:54:59.119Z,15.55
2023-05-08T06:57:27.324Z,15.59
2023-05-08T06:59:54.216Z,15.61
2023-05-08T07:02:20.784Z,15.65
2023-05-08T07:04:47.499Z,15.70
2023-05-08T07:07:14.226Z,15.73
2023-05-08T07:09:41.274Z,15.78
2023-05-08T07:12:08.856Z,15.89
2023-05-08T07:14:35.493Z,15.96
2023-05-08T07:17:07.651Z,16.03
2023-05-08T07:19:36.629Z,16.10
2023-05-08T07:22:03.406Z,16.20
2023-05-08T07:24:30.145Z,16.24
2023-05-08T07:26:56.843Z,16.32
2023-05-08T07:29:23.421Z,16.38
2023-05-08T07:31:51.945Z,16.42
2023-05-08T07:34:18.570Z,16.53
2023-05-08T07:36:45.453Z,16.61
2023-05-08T07:39:12.152Z,16.68
2023-05-08T07:41:40.900Z,16.69
2023-05-08T07:44:07.908Z,16.65
2023-05-08T07:46:34.762Z,16.66
2023-05-08T07:49:01.429Z,16.67
2023-05-08T07:51:27.862Z,16.71
2023-05-08T07:53:55.133Z,16.71
2023-05-08T07:56:24.865Z,16.71
2023-05-08T07:59:00.408Z,16.71
2023-05-08T08:01:27.350Z,16.73
2023-05-08T08:03:54.535Z,16.70
2023-05-08T08:06:21.175Z,16.79
2023-05-08T08:08:47.668Z,16.83
2023-05-08T08:11:14.244Z,16.86
2023-05-08T08:13:40.730Z,16.93
2023-05-08T08:16:07.293Z,16.95
2023-05-08T08:18:36.016Z,17.01
2023-05-08T08:21:06.794Z,17.08
2023-05-08T08:23:33.854Z,17.16
2023-05-08T08:26:00.416Z,17.22
2023-05-08T08:28:26.784Z,17.26
2023-05-08T08:30:53.446Z,17.27
2023-05-08T08:33:19.920Z,17.29
2023-05-08T08:35:46.458Z,17.29
2023-05-08T08:38:13.270Z,17.32
2023-05-08T08:40:43.301Z,17.36
2023-05-08T08:43:10.049Z,17.39
2023-05-08T08:45:37.539Z,17.40
2023-05-08T08:48:05.170Z,17.44
2023-05-08T08:50:33.251Z,17.52
2023-05-08T08:53:11.338Z,17.59
2023-05-08T08:55:40.931Z,17.65
2023-05-08T08:58:43.781Z,17.70
2023-05-08T09:01:16.307Z,17.77
2023-05-08T09:03:43.173Z,17.84
2023-05-08T09:06:13.192Z,17.85
2023-05-08T09:08:43.769Z,17.86
2023-05-08T09:11:10.661Z,17.86
2023-05-08T09:13:37.279Z,17.88
2023-05-08T09:16:04.295Z,17.89
2023-05-08T09:18:30.752Z,17.88
2023-05-08T09:20:57.439Z,17.91
2023-05-08T09:23:23.984Z,17.90
2023-05-08T09:25:50.702Z,17.93
2023-05-08T09:28:25.648Z,18.00
2023-05-08T09:30:57.048Z,18.02
2023-05-08T09:33:26.136Z,18.05
2023-05-08T09:35:53.160Z,18.12
2023-05-08T09:38:39.534Z,18.20
2023-05-08T09:41:08.659Z,18.19
2023-05-08T09:43:35.185Z,18.22
2023-05-08T09:46:23.354Z,18.27
2023-05-08T09:48:52.153Z,18.33
2023-05-08T09:51:18.820Z,18.37
2023-05-08T09:53:45.436Z,18.35
2023-05-08T09:56:12.147Z,18.37
2023-05-08T09:58:43.574Z,18.39
2023-05-08T10:01:29.925Z,18.36
2023-05-08T10:03:56.689Z,18.33
2023-05-08T10:06:23.221Z,18.32
2023-05-08T10:09:06.581Z,18.33
2023-05-08T10:11:33.263Z,18.37
2023-05-08T10:13:59.902Z,18.45
2023-05-08T10:16:29.468Z,18.55
2023-05-08T10:19:02.202Z,18.60
2023-05-08T10:21:29.925Z,18.70
2023-05-08T10:24:00.373Z,18.78
2023-05-08T10:26:32.024Z,18.84
2023-05-08T10:28:59.464Z,18.92
2023-05-08T10:31:28.651Z,18.95
2023-05-08T10:33:59.528Z,18.96
2023-05-08T10:36:27.398Z,18.94
2023-05-08T10:38:57.806Z,18.94
2023-05-08T10:41:25.881Z,18.90
2023-05-08T10:43:53.199Z,18.92
2023-05-08T10:46:42.032Z,18.91
2023-05-08T10:49:39.625Z,19.08
2023-05-08T10:52:27.390Z,19.17
2023-05-08T10:54:56.107Z,19.23
2023-05-08T10:57:22.588Z,19.31
2023-05-08T10:59:49.026Z,19.36
2023-05-08T11:02:16.626Z,19.44
2023-05-08T11:04:44.072Z,19.47
2023-05-08T11:07:11.551Z,19.63
2023-05-08T11:09:41.025Z,19.75
2023-05-08T11:12:16.392Z,19.79
2023-05-08T11:14:52.671Z,19.86
2023-05-08T11:17:24.019Z,19.88
2023-05-08T11:19:58.927Z,19.92
2023-05-08T11:22:36.937Z,19.96
2023-05-08T11:25:10.080Z,19.97
2023-05-08T11:27:49.683Z,19.97
2023-05-08T11:30:22.191Z,19.87
2023-05-08T11:33:04.056Z,19.94
2023-05-08T11:35:54.027Z,19.94
2023-05-08T11:38:30.890Z,19.94
2023-05-08T11:41:02.787Z,19.94
2023-05-08T11:43:38.204Z,19.94
2023-05-08T11:46:14.513Z,19.95
2023-05-08T11:48:41.098Z,20.01
2023-05-08T11:51:07.644Z,20.07
2023-05-08T11:53:36.460Z,20.23
2023-05-08T11:56:04.109Z,20.47
2023-05-08T11:58:31.144Z,20.72
2023-05-08T12:00:57.901Z,20.94
2023-05-08T12:03:28.760Z,21.17
2023-05-08T12:05:57.246Z,21.40
2023-05-08T12:08:24.070Z,21.61
2023-05-08T12:10:52.219Z,21.80
2023-05-08T12:13:23.559Z,21.95
2023-05-08T12:15:58.502Z,22.06
2023-05-08T12:18:27.097Z,22.09
2023-05-08T12:20:54.818Z,22.17
2023-05-08T12:23:21.277Z,22.22
2023-05-08T12:25:47.921Z,22.23
2023-05-08T12:28:14.527Z,22.17
2023-05-08T12:30:41.263Z,22.10
2023-05-08T12:33:08.861Z,22.07
2023-05-08T12:35:37.393Z,22.08
2023-05-08T12:38:06.257Z,22.11
2023-05-08T12:40:42.698Z,22.13
2023-05-08T12:43:09.900Z,22.16
2023-05-08T12:45:41.825Z,22.10
2023-05-08T12:48:11.385Z,22.06
2023-05-08T12:50:45.217Z,22.07
2023-05-08T12:53:14.704Z,22.20
2023-05-08T12:55:53.244Z,22.32
2023-05-08T12:58:23.530Z,22.30
2023-05-08T13:00:52.233Z,22.30
2023-05-08T13:03:26.812Z,22.26
2023-05-08T13:05:55.457Z,22.16
2023-05-08T13:08:30.987Z,22.08
2023-05-08T13:10:59.632Z,22.10
2023-05-08T13:13:27.847Z,22.03
2023-05-08T13:15:55.260Z,22.02
2023-05-08T13:18:25.285Z,22.05
2023-05-08T13:20:51.887Z,21.99
2023-05-08T13:23:18.469Z,22.07
2023-05-08T13:25:55.502Z,22.13
2023-05-08T13:28:21.913Z,22.17
2023-05-08T13:30:48.327Z,22.29
2023-05-08T13:33:14.871Z,22.43
2023-05-08T13:35:41.480Z,22.52
2023-05-08T13:38:07.959Z,22.51
2023-05-08T13:40:34.672Z,22.51
2023-05-08T13:43:01.139Z,22.51
2023-05-08T13:45:27.842Z,22.49
2023-05-08T13:47:54.680Z,22.42
2023-05-08T13:50:21.927Z,22.36
2023-05-08T13:52:49.681Z,22.33
2023-05-08T13:55:17.657Z,22.29
2023-05-08T13:57:44.295Z,22.24
2023-05-08T14:00:11.942Z,22.20
2023-05-08T14:02:38.496Z,22.20
2023-05-08T14:05:07.944Z,22.30
2023-05-08T14:07:35.149Z,22.42
2023-05-08T14:10:01.792Z,22.49
2023-05-08T14:12:28.351Z,22.52
2023-05-08T14:14:54.901Z,22.54
2023-05-08T14:17:21.434Z,22.41
2023-05-08T14:19:49.819Z,22.52
2023-05-08T14:22:16.348Z,22.52
2023-05-08T14:24:42.881Z,22.49
2023-05-08T14:27:09.289Z,22.46
2023-05-08T14:29:36.019Z,22.43
2023-05-08T14:32:02.665Z,22.36
2023-05-08T14:34:29.147Z,22.38
2023-05-08T14:36:55.587Z,22.46
2023-05-08T14:39:22.105Z,22.51
2023-05-08T14:42:05.783Z,22.54
2023-05-08T14:44:37.659Z,22.54
2023-05-08T14:47:04.236Z,22.54
2023-05-08T14:49:37.400Z,22.59
2023-05-08T14:52:04.620Z,22.62
2023-05-08T14:54:31.624Z,22.63
2023-05-08T14:56:58.340Z,22.67
2023-05-08T14:59:24.766Z,22.68
2023-05-08T15:01:51.385Z,22.67
2023-05-08T15:04:17.990Z,22.63
2023-05-08T15:06:44.634Z,22.63
2023-05-08T15:09:11.103Z,22.61
2023-05-08T15:11:38.385Z,22.57
2023-05-08T15:14:06.041Z,22.54
2023-05-08T15:16:32.886Z,22.55
2023-05-08T15:18:59.614Z,22.56
2023-05-08T15:21:26.826Z,22.52
2023-05-08T15:23:56.528Z,22.57
2023-05-08T15:26:23.162Z,22.61
2023-05-08T15:28:49.798Z,22.64
2023-05-08T15:31:16.946Z,22.61
2023-05-08T15:33:44.582Z,22.62
2023-05-08T15:36:12.673Z,22.57
2023-05-08T15:38:40.124Z,22.51
2023-05-08T15:41:06.865Z,22.45
2023-05-08T15:43:33.397Z,22.48
2023-05-08T15:46:00.041Z,22.43
2023-05-08T15:48:26.502Z,22.30
2023-05-08T15:50:53.084Z,22.24
2023-05-08T15:53:19.502Z,22.15
2023-05-08T15:55:45.911Z,22.08
2023-05-08T15:58:12.394Z,22.06
2023-05-08T16:00:44.831Z,22.03
2023-05-08T16:03:12.508Z,21.97
2023-05-08T16:05:39.649Z,21.94
2023-05-08T16:08:07.483Z,21.85
2023-05-08T16:10:34.340Z,21.73
2023-05-08T16:13:00.803Z,21.71
2023-05-08T16:15:27.279Z,21.64
2023-05-08T16:17:56.705Z,21.61
2023-05-08T16:20:23.370Z,21.52
2023-05-08T16:22:54.325Z,21.47
2023-05-08T16:25:20.956Z,21.37
2023-05-08T16:27:47.450Z,21.46
2023-05-08T16:30:13.992Z,21.45
2023-05-08T16:32:40.448Z,21.48
2023-05-08T16:35:07.509Z,21.52
2023-05-08T16:37:35.493Z,21.55
2023-05-08T16:40:02.680Z,21.58
2023-05-08T16:42:29.154Z,21.60
2023-05-08T16:44:55.574Z,21.58
2023-05-08T16:47:22.035Z,21.54
2023-05-08T16:49:48.600Z,21.52
2023-05-08T16:52:15.331Z,21.51
2023-05-08T16:54:41.829Z,21.50
2023-05-08T16:57:08.401Z,21.46
2023-05-08T16:59:34.888Z,21.42
2023-05-08T17:02:01.404Z,21.29
2023-05-08T17:04:29.673Z,21.29
2023-05-08T17:06:57.484Z,21.23
2023-05-08T17:09:25.316Z,21.14
2023-05-08T17:11:51.829Z,21.06
2023-05-08T17:14:18.521Z,20.96
2023-05-08T17:16:45.112Z,20.90
2023-05-08T17:19:11.664Z,20.88
2023-05-08T17:21:40.993Z,20.85
2023-05-08T17:24:07.799Z,20.80
2023-05-08T17:26:34.352Z,20.75
2023-05-08T17:29:01.173Z,20.60
2023-05-08T17:31:27.715Z,20.62
2023-05-08T17:33:54.213Z,20.63
2023-05-08T17:36:20.877Z,20.60
2023-05-08T17:38:47.593Z,20.57
2023-05-08T17:41:14.362Z,20.56
2023-05-08T17:43:40.848Z,20.57
2023-05-08T17:46:08.021Z,20.55
2023-05-08T17:48:35.053Z,20.52
2023-05-08T17:51:02.715Z,20.53
2023-05-08T17:53:32.802Z,20.51
2023-05-08T17:55:59.483Z,20.49
2023-05-08T17:58:26.076Z,20.48
2023-05-08T18:00:53.972Z,20.45
2023-05-08T18:03:20.744Z,20.43
2023-05-08T18:05:47.329Z,20.42
2023-05-08T18:08:13.884Z,20.39
2023-05-08T18:10:40.463Z,20.31
2023-05-08T18:13:07.049Z,20.30
2023-05-08T18:15:36.106Z,20.25
2023-05-08T18:18:02.793Z,20.21
2023-05-08T18:20:29.447Z,20.15
2023-05-08T18:23:02.009Z,19.94
2023-05-08T18:25:30.048Z,19.98
2023-05-08T18:27:58.728Z,19.98
2023-05-08T18:30:25.233Z,20.00
2023-05-08T18:32:53.320Z,19.99
2023-05-08T18:35:22.699Z,19.96
2023-05-08T18:37:49.114Z,19.91
2023-05-08T18:40:17.250Z,19.90
2023-05-08T18:42:43.796Z,19.89
2023-05-08T18:45:10.767Z,19.89
2023-05-08T18:47:37.201Z,19.87
2023-05-08T18:50:03.787Z,19.82
2023-05-08T18:52:30.244Z,19.83
2023-05-08T18:54:56.660Z,19.81
2023-05-08T18:57:23.628Z,19.75
2023-05-08T18:59:50.457Z,19.70
2023-05-08T19:02:16.815Z,19.66
2023-05-08T19:04:43.229Z,19.59
2023-05-08T19:07:09.728Z,19.52
2023-05-08T19:09:36.190Z,19.47
2023-05-08T19:12:08.721Z,19.45
2023-05-08T19:14:35.247Z,19.40
2023-05-08T19:17:01.853Z,19.35
2023-05-08T19:19:30.615Z,19.30
2023-05-08T19:21:57.583Z,19.23
2023-05-08T19:24:26.306Z,19.17
2023-05-08T19:26:52.732Z,19.09
2023-05-08T19:29:19.149Z,19.01
2023-05-08T19:31:45.717Z,19.01
2023-05-08T19:34:12.189Z,18.98
2023-05-08T19:36:38.740Z,18.92
2023-05-08T19:39:08.229Z,18.87
2023-05-08T19:41:35.385Z,18.89
2023-05-08T19:44:01.799Z,18.89
2023-05-08T19:46:28.312Z,18.91
2023-05-08T19:48:57.228Z,18.93
2023-05-08T19:51:24.058Z,18.94
2023-05-08T19:53:50.790Z,18.97
2023-05-08T19:56:17.798Z,18.95
2023-05-08T19:58:45.485Z,18.96
2023-05-08T20:01:11.915Z,18.94
2023-05-08T20:03:38.415Z,18.95
2023-05-08T20:06:04.990Z,18.94
2023-05-08T20:08:31.486Z,18.95
2023-05-08T20:11:02.281Z,18.94
2023-05-08T20:13:28.769Z,18.95
2023-05-08T20:15:55.418Z,18.91
2023-05-08T20:18:21.987Z,18.88
2023-05-08T20:20:48.430Z,18.86
2023-05-08T20:23:15.002Z,18.84
2023-05-08T20:25:46.382Z,18.83
2023-05-08T20:28:13.623Z,18.80
2023-05-08T20:30:40.145Z,18.77
2023-05-08T20:33:06.901Z,18.73
2023-05-08T20:35:33.765Z,18.66
2023-05-08T20:38:01.784Z,18.63
2023-05-08T20:40:28.447Z,18.60
2023-05-08T20:42:54.832Z,18.58
2023-05-08T20:45:21.266Z,18.57
2023-05-08T20:47:47.781Z,18.59
2023-05-08T20:50:20.447Z,18.59
2023-05-08T20:52:46.984Z,18.57
2023-05-08T20:55:13.699Z,18.57
2023-05-08T20:57:40.241Z,18.56
2023-05-08T21:00:08.286Z,18.53
2023-05-08T21:02:34.835Z,18.52
2023-05-08T21:05:01.439Z,18.50
2023-05-08T21:07:27.946Z,18.46
2023-05-08T21:09:54.320Z,18.42
2023-05-08T21:12:20.829Z,18.38
2023-05-08T21:14:47.320Z,18.37
2023-05-08T21:17:13.835Z,18.37
2023-05-08T21:19:40.352Z,18.35
2023-05-08T21:22:09.234Z,18.34
2023-05-08T21:24:37.157Z,18.32
2023-05-08T21:27:03.594Z,18.28
2023-05-08T21:29:30.036Z,18.22
2023-05-08T21:31:56.607Z,18.18
2023-05-08T21:34:23.099Z,18.18
2023-05-08T21:36:51.910Z,18.17
2023-05-08T21:39:18.432Z,18.15
2023-05-08T21:41:46.577Z,18.12
2023-05-08T21:44:13.107Z,18.12
2023-05-08T21:46:39.666Z,18.11
2023-05-08T21:49:06.495Z,18.10
2023-05-08T21:51:33.344Z,18.09
2023-05-08T21:53:59.893Z,18.04
2023-05-08T21:56:26.317Z,18.02
2023-05-08T21:58:52.887Z,17.98
2023-05-08T22:01:19.371Z,17.96
2023-05-08T22:03:47.405Z,17.94
2023-05-08T22:06:14.013Z,17.96
2023-05-08T22:08:40.629Z,17.95
2023-05-08T22:11:07.069Z,17.97
2023-05-08T22:13:33.603Z,17.95
2023-05-08T22:16:00.182Z,17.95
2023-05-08T22:18:29.941Z,17.96
2023-05-08T22:20:56.388Z,17.94
2023-05-08T22:23:22.866Z,17.92
2023-05-08T22:25:49.317Z,17.89
2023-05-08T22:28:15.779Z,17.82
2023-05-08T22:30:42.151Z,17.76
2023-05-08T22:33:08.693Z,17.70
2023-05-08T22:35:35.416Z,17.65
2023-05-08T22:38:01.889Z,17.59
2023-05-08T22:40:28.624Z,17.52
2023-05-08T22:42:55.905Z,17.46
2023-05-08T22:45:23.202Z,17.42
2023-05-08T22:47:49.762Z,17.40
2023-05-08T22:50:17.054Z,17.39
2023-05-08T22:52:43.907Z,17.36
2023-05-08T22:55:10.712Z,17.33
2023-05-08T22:57:37.164Z,17.31
2023-05-08T23:00:03.992Z,17.30
2023-05-08T23:02:34.797Z,17.28
2023-05-08T23:05:02.377Z,17.28
2023-05-08T23:07:29.106Z,17.28
2023-05-08T23:09:55.588Z,17.25
2023-05-08T23:12:22.087Z,17.25
2023-05-08T23:14:49.095Z,17.26
2023-05-08T23:17:24.953Z,17.26
2023-05-08T23:19:51.442Z,17.26
2023-05-08T23:22:18.003Z,17.23
2023-05-08T23:24:44.526Z,17.21
2023-05-08T23:27:11.618Z,17.17
2023-05-08T23:29:38.055Z,17.12
2023-05-08T23:32:04.809Z,17.07
2023-05-08T23:34:31.235Z,17.04
2023-05-08T23:36:57.740Z,17.04
2023-05-08T23:39:27.213Z,17.04
2023-05-08T23:41:53.753Z,17.01
2023-05-08T23:44:20.720Z,16.97
2023-05-08T23:46:47.269Z,16.95
2023-05-08T23:49:13.959Z,16.96
2023-05-08T23:51:40.386Z,16.95
2023-05-08T23:54:08.125Z,16.95
2023-05-08T23:56:34.494Z,16.95
2023-05-08T23:59:01.255Z,16.94
